Meteo Giornale » Osservazioni meteo Repubblica Ceca » Praha-Ruzyne

ore: 08:00 - Osservazioni Meteo Praha-Ruzyne
Lat. 50° 6' N Lon. 14° 15' E Alt. 365 metri s.l.m.

sereno Europe/Prague

13 °C

Sereno

Temp. 24 Ore

8 °C

17 °C

Nord/NOvest

13 Km/h

Dew point 7 °C

Umidità 66 %

Visibilità  10 Km

Il sole sorge alle ore 04:55

Il sole tramonta alle ore 21:06

Data e Ora Cielo e Fenomeni T °C DP °C Um. % Pres. hPa Vis. km Vento km/h
Oggi h: 08:00 sereno Sereno 13 7 66 1021 10 N/NO 13
Oggi h: 07:30 sereno Sereno 13 7 66 1021 10 NO 11.1
Oggi h: 07:00 sereno Sereno 12 8 76 1021 10 NO 11.1
Oggi h: 05:30 sereno Sereno 8 6 87 1021 10 O 7.4
Oggi h: 05:00 sereno Sereno 9 7 87 1020 10 N 5.5
Oggi h: 04:30 sereno Sereno 10 7 81 1020 10 O 9.3
Oggi h: 04:00 sereno Sereno 10 7 81 1020 10 NO 13
Oggi h: 03:30 sereno Sereno 9 7 87 1020 10 O/NO 11.1
Oggi h: 03:00 sereno Sereno 10 7 81 1020 10 NO 13
Oggi h: 02:30 sereno Sereno 10 7 81 1020 10 NO 9.3
Oggi h: 02:00 sereno Sereno 11 7 76 1020 10 NO 7.4
Oggi h: 01:30 sereno Sereno 11 7 76 1020 10 O 7.4
Oggi h: 01:00 sereno Sereno 11 7 76 1020 10 NO 14.8
Oggi h: 00:00 sereno Sereno 12 8 76 1020 10 NO 18.5
Ieri h: 23:00 sereno Sereno 13 8 71 1020 10 O 11.1
Ieri h: 22:30 sereno Sereno 13 8 71 1020 10 O/NO 13
Ieri h: 22:00 sereno Sereno 13 8 71 1020 10 O 13
Ieri h: 21:00 sereno Sereno 15 8 62 1019 10 O 13
Ieri h: 20:30 sereno Sereno 16 9 63 1019 10 O/NO 11.1
Ieri h: 20:00 sereno Sereno 17 9 59 1019 10 NO 13
Ieri h: 19:30 sereno Sereno 16 9 63 1019 10 NO 13
Ieri h: 18:00 poco_nuvoloso Poco Nuvoloso 16 8 58 1019 10 N/NO 18.5
Ieri h: 17:00 nuvoloso Nuvoloso 17 9 59 1019 10 N/NO 20.3
Ieri h: 16:00 poco_nuvoloso Poco Nuvoloso 14 8 67 1019 10 NO 24
Ieri h: 15:30 poco_nuvoloso Poco Nuvoloso 12 8 76 1019 10 O/NO 24
Ieri h: 15:00 poco_nuvoloso Poco Nuvoloso 11 7 76 1019 10 O/NO 20.3
Ieri h: 14:30 coperto_pioggia Pioggia Debole 11 7 76 1019 10 O/NO 20.3
Ieri h: 14:00 coperto_pioggia Pioggia Debole 11 7 76 1019 10 O/NO 18.5
Ieri h: 13:30 coperto_pioggia Pioggia Debole 10 7 81 1019 10 O 16.7
Ieri h: 13:00 coperto_pioggia Pioggia Debole 10 6 76 1019 10 O/NO 16.7
Ieri h: 12:30 coperto_pioggia Pioggia Debole 10 6 76 1019 10 O/NO 14.8
Ieri h: 12:00 coperto_pioggia Pioggia Debole 10 7 81 1020 10 NO 16.7
Ieri h: 11:30 coperto_pioggia Pioggia Debole 12 5 62 1019 10 N/NO 25.9
Ieri h: 11:00 coperto_pioggia Pioggia Debole 12 5 62 1019 10 N/NO 27.8
Ieri h: 10:40 coperto_pioggia Pioggia Debole 12 4 57 1019 10 NO 22.2
Ieri h: 10:30 sereno Sereno 11 5 66 1019 10 NO 22.2
Ieri h: 10:00 poco_nuvoloso Poco Nuvoloso 11 5 66 1019 10 NO 20.3
Ieri h: 09:30 poco_nuvoloso Poco Nuvoloso 11 6 71 1019 10 NO 20.3
Ieri h: 09:00 poco_nuvoloso Poco Nuvoloso 11 6 71 1019 10 N/NO 18.5